createdAt,value
2018-02-09T00:02:00.579Z,109.28
2018-02-09T00:04:29.629Z,101.93
2018-02-09T00:06:57.205Z,111.18
2018-02-09T00:09:24.775Z,110.90
2018-02-09T00:11:52.356Z,97.93
2018-02-09T00:14:20.671Z,88.32
2018-02-09T00:16:48.248Z,111.80
2018-02-09T00:19:15.792Z,106.68
2018-02-09T00:21:43.365Z,101.47
2018-02-09T00:24:10.905Z,105.90
2018-02-09T00:26:38.487Z,97.82
2018-02-09T00:29:06.030Z,103.50
2018-02-09T00:31:33.615Z,101.20
2018-02-09T00:34:01.205Z,102.82
2018-02-09T00:36:28.731Z,89.68
2018-02-09T00:38:56.262Z,96.45
2018-02-09T00:41:23.841Z,116.37
2018-02-09T00:43:51.382Z,103.82
2018-02-09T00:46:18.920Z,113.25
2018-02-09T00:48:47.271Z,108.70
2018-02-09T00:51:14.897Z,108.12
2018-02-09T00:53:42.483Z,108.37
2018-02-09T00:56:10.066Z,103.00
2018-02-09T00:58:37.606Z,115.12
2018-02-09T01:01:05.183Z,104.07
2018-02-09T01:03:32.721Z,106.78
2018-02-09T01:06:00.304Z,117.40
2018-02-09T01:08:27.895Z,114.95
2018-02-09T01:10:55.473Z,96.60
2018-02-09T01:13:23.014Z,109.28
2018-02-09T01:15:50.558Z,109.20
2018-02-09T01:18:18.902Z,105.30
2018-02-09T01:20:46.508Z,115.47
2018-02-09T01:23:14.809Z,107.15
2018-02-09T01:25:42.356Z,99.85
2018-02-09T01:28:09.930Z,99.47
2018-02-09T01:30:37.468Z,108.87
2018-02-09T01:33:05.047Z,116.43
2018-02-09T01:35:32.587Z,115.47
2018-02-09T01:38:00.165Z,108.15
2018-02-09T01:40:27.743Z,121.03
2018-02-09T01:42:55.279Z,103.00
2018-02-09T01:45:22.854Z,110.07
2018-02-09T01:47:50.400Z,101.80
2018-02-09T01:50:18.207Z,101.65
2018-02-09T01:52:45.788Z,103.20
2018-02-09T01:55:14.143Z,107.85
2018-02-09T01:57:43.194Z,114.95
2018-02-09T02:00:10.846Z,110.78
2018-02-09T02:02:38.448Z,104.25
2018-02-09T02:05:05.986Z,114.40
2018-02-09T02:07:33.522Z,111.40
2018-02-09T02:10:01.102Z,100.10
2018-02-09T02:12:28.638Z,113.57
2018-02-09T02:14:56.979Z,112.40
2018-02-09T02:17:24.528Z,103.55
2018-02-09T02:19:52.120Z,115.15
2018-02-09T02:22:20.438Z,118.40
2018-02-09T02:24:48.027Z,104.65
2018-02-09T02:27:15.619Z,109.25
2018-02-09T02:29:58.738Z,101.43
2018-02-09T02:32:26.343Z,103.80
2018-02-09T02:34:53.873Z,108.65
2018-02-09T02:37:22.218Z,101.50
2018-02-09T02:39:49.769Z,112.03
2018-02-09T02:42:17.351Z,118.28
2018-02-09T02:44:44.897Z,105.60
2018-02-09T02:47:12.474Z,106.30
2018-02-09T02:49:40.792Z,104.20
2018-02-09T02:52:08.375Z,108.82
2018-02-09T02:54:35.921Z,94.93
2018-02-09T02:57:03.510Z,113.00
2018-02-09T02:59:31.052Z,113.90
2018-02-09T03:01:58.630Z,116.82
2018-02-09T03:04:26.176Z,113.60
2018-02-09T03:06:53.748Z,98.20
2018-02-09T03:09:21.287Z,103.05
2018-02-09T03:11:48.854Z,110.88
2018-02-09T03:14:16.408Z,105.07
2018-02-09T03:16:43.992Z,103.85
2018-02-09T03:19:11.543Z,102.00
2018-02-09T03:21:39.128Z,102.57
2018-02-09T03:24:07.435Z,119.00
2018-02-09T03:26:35.024Z,108.18
2018-02-09T03:29:02.558Z,98.87
2018-02-09T03:31:30.140Z,95.35
2018-02-09T03:33:57.692Z,100.20
2018-02-09T03:36:25.279Z,111.97
2018-02-09T03:38:52.828Z,106.28
2018-02-09T03:41:20.416Z,103.30
2018-02-09T03:43:47.989Z,92.43
2018-02-09T03:46:16.292Z,95.07
2018-02-09T03:48:43.896Z,109.87
2018-02-09T03:51:11.442Z,106.53
2018-02-09T03:53:38.990Z,114.68
2018-02-09T03:56:06.577Z,109.18
2018-02-09T03:58:34.154Z,105.07
2018-02-09T04:01:01.697Z,116.05
2018-02-09T04:03:29.281Z,110.30
2018-02-09T04:05:57.600Z,115.75
2018-02-09T04:08:25.179Z,95.97
2018-02-09T04:10:52.752Z,110.32
2018-02-09T04:13:20.295Z,103.82
2018-02-09T04:15:49.428Z,104.80
2018-02-09T04:18:16.970Z,105.10
2018-02-09T04:20:44.546Z,102.95
2018-02-09T04:23:12.277Z,108.90
2018-02-09T04:25:39.825Z,101.43
2018-02-09T04:28:07.365Z,101.15
2018-02-09T04:30:34.933Z,91.00
2018-02-09T04:33:02.482Z,95.30
2018-02-09T04:35:30.939Z,98.75
2018-02-09T04:37:59.250Z,93.18
2018-02-09T04:40:26.830Z,95.90
2018-02-09T04:42:54.379Z,107.53
2018-02-09T04:45:21.961Z,101.05
2018-02-09T04:47:49.497Z,97.65
2018-02-09T04:50:17.083Z,92.68
2018-02-09T04:52:44.641Z,108.37
2018-02-09T04:55:12.229Z,94.65
2018-02-09T04:57:40.531Z,92.57
2018-02-09T05:00:08.124Z,88.53
2018-02-09T05:02:35.718Z,86.05
2018-02-09T05:05:03.275Z,104.93
2018-02-09T05:07:30.817Z,92.93
2018-02-09T05:09:58.396Z,90.93
2018-02-09T05:12:25.932Z,99.28
2018-02-09T05:14:53.514Z,101.25
2018-02-09T05:17:21.051Z,104.57
2018-02-09T05:19:48.626Z,97.55
2018-02-09T05:22:16.158Z,95.05
2018-02-09T05:24:43.730Z,104.85
2018-02-09T05:27:11.411Z,105.07
2018-02-09T05:29:38.985Z,113.30
2018-02-09T05:32:07.310Z,103.85
2018-02-09T05:34:34.887Z,104.18
2018-02-09T05:37:02.421Z,107.15
2018-02-09T05:39:29.997Z,96.65
2018-02-09T05:41:57.543Z,113.45
2018-02-09T05:44:25.127Z,105.90
2018-02-09T05:46:52.689Z,115.22
2018-02-09T05:49:20.227Z,98.53
2018-02-09T05:51:47.802Z,110.68
2018-02-09T05:54:15.340Z,104.18
2018-02-09T05:56:42.910Z,105.93
2018-02-09T05:59:10.483Z,116.97
2018-02-09T06:01:38.032Z,115.40
2018-02-09T06:04:05.583Z,111.03
2018-02-09T06:06:33.164Z,103.70
2018-02-09T06:09:00.707Z,118.25
2018-02-09T06:11:28.315Z,111.70
2018-02-09T06:13:55.875Z,120.53
2018-02-09T06:16:23.499Z,102.18
2018-02-09T06:18:51.036Z,116.12
2018-02-09T06:21:18.650Z,122.82
2018-02-09T06:23:46.264Z,104.32
2018-02-09T06:26:13.876Z,115.90
2018-02-09T06:28:41.415Z,108.30
2018-02-09T06:31:08.994Z,95.32
2018-02-09T06:33:36.536Z,105.93
2018-02-09T06:36:04.115Z,120.50
2018-02-09T06:38:32.419Z,121.13
2018-02-09T06:41:00.012Z,118.47
2018-02-09T06:43:27.562Z,112.93
2018-02-09T06:45:55.135Z,108.32
2018-02-09T06:48:22.684Z,101.32
2018-02-09T06:50:50.275Z,113.62
2018-02-09T06:53:17.813Z,105.85
2018-02-09T06:55:45.390Z,126.30
2018-02-09T06:58:12.935Z,114.05
2018-02-09T07:00:40.521Z,121.15
2018-02-09T07:03:08.067Z,105.45
2018-02-09T07:05:35.689Z,106.15
2018-02-09T07:08:03.223Z,112.43
2018-02-09T07:10:31.568Z,108.90
2018-02-09T07:12:59.242Z,113.32
2018-02-09T07:15:26.823Z,109.40
2018-02-09T07:17:55.123Z,129.30
2018-02-09T07:20:22.740Z,106.82
2018-02-09T07:22:50.269Z,98.72
2018-02-09T07:25:17.916Z,110.90
2018-02-09T07:27:45.459Z,111.68
2018-02-09T07:30:13.046Z,112.57
2018-02-09T07:32:40.594Z,123.15
2018-02-09T07:35:08.185Z,111.85
2018-02-09T07:37:35.945Z,116.15
2018-02-09T07:40:03.541Z,112.60
2018-02-09T07:42:31.864Z,104.25
2018-02-09T07:44:59.447Z,123.85
2018-02-09T07:47:26.987Z,113.72
2018-02-09T07:49:54.578Z,110.05
2018-02-09T07:52:22.197Z,111.82
2018-02-09T07:54:49.780Z,111.90
2018-02-09T07:57:17.317Z,103.75
2018-02-09T07:59:44.922Z,110.43
2018-02-09T08:02:12.485Z,109.87
2018-02-09T08:04:40.031Z,124.53
2018-02-09T08:07:07.611Z,121.03
2018-02-09T08:09:35.929Z,104.97
2018-02-09T08:12:03.516Z,115.57
2018-02-09T08:14:31.060Z,109.05
2018-02-09T08:16:59.287Z,115.07
2018-02-09T08:19:27.636Z,108.15
2018-02-09T08:21:55.182Z,113.28
2018-02-09T08:24:22.796Z,115.55
2018-02-09T08:26:51.095Z,117.80
2018-02-09T08:29:18.698Z,115.05
2018-02-09T08:31:46.242Z,126.15
2018-02-09T08:34:13.821Z,109.90
2018-02-09T08:36:41.367Z,108.45
2018-02-09T08:39:08.958Z,106.70
2018-02-09T08:41:36.502Z,107.32
2018-02-09T08:44:04.088Z,118.75
2018-02-09T08:46:32.405Z,102.65
2018-02-09T08:48:59.980Z,114.90
2018-02-09T08:51:27.536Z,116.85
2018-02-09T08:53:55.067Z,114.55
2018-02-09T08:56:22.655Z,119.65
2018-02-09T08:58:50.259Z,118.57
2018-02-09T09:01:18.565Z,118.45
2018-02-09T09:03:46.104Z,124.45
2018-02-09T09:06:14.449Z,115.85
2018-02-09T09:08:41.992Z,117.60
2018-02-09T09:11:09.566Z,108.50
2018-02-09T09:13:37.147Z,115.57
2018-02-09T09:16:04.685Z,114.12
2018-02-09T09:18:32.279Z,105.03
2018-02-09T09:21:00.589Z,107.47
2018-02-09T09:23:28.136Z,124.25
2018-02-09T09:25:55.759Z,117.45
2018-02-09T09:28:23.352Z,116.90
2018-02-09T09:30:50.972Z,101.80
2018-02-09T09:33:18.591Z,116.37
2018-02-09T09:35:46.167Z,115.75
2018-02-09T09:38:13.728Z,115.47
2018-02-09T09:40:41.331Z,115.72
2018-02-09T09:43:09.636Z,117.85
2018-02-09T09:45:37.488Z,116.82
2018-02-09T09:48:05.795Z,109.28
2018-02-09T09:50:33.383Z,112.03
2018-02-09T09:53:00.999Z,106.80
2018-02-09T09:55:28.604Z,112.18
2018-02-09T09:57:56.451Z,100.82
2018-02-09T10:00:23.995Z,110.25
2018-02-09T10:02:51.586Z,109.80
2018-02-09T10:05:19.163Z,119.28
2018-02-09T10:07:46.708Z,111.65
2018-02-09T10:10:14.284Z,110.47
2018-02-09T10:12:41.826Z,106.35
2018-02-09T10:15:09.403Z,99.20
2018-02-09T10:17:36.946Z,96.97
2018-02-09T10:20:04.535Z,104.35
2018-02-09T10:22:32.840Z,100.40
2018-02-09T10:25:00.423Z,63.47
2018-02-09T10:27:27.967Z,70.87
2018-02-09T10:29:55.561Z,66.30
2018-02-09T10:32:23.102Z,63.28
2018-02-09T10:34:50.680Z,61.25
2018-02-09T10:37:18.222Z,66.93
2018-02-09T10:39:45.799Z,67.40
2018-02-09T10:42:13.342Z,63.10
2018-02-09T10:44:40.917Z,68.75
2018-02-09T10:47:08.473Z,58.85
2018-02-09T10:49:36.057Z,56.72
2018-02-09T10:52:03.607Z,69.55
2018-02-09T10:54:31.186Z,67.22
2018-02-09T10:56:58.719Z,68.12
2018-02-09T10:59:26.277Z,56.33
2018-02-09T11:01:53.851Z,63.13
2018-02-09T11:04:21.392Z,65.65
2018-02-09T11:06:48.969Z,63.60
2018-02-09T11:09:22.363Z,65.62
2018-02-09T11:11:49.917Z,68.32
2018-02-09T11:14:17.486Z,61.30
2018-02-09T11:16:45.113Z,55.05
2018-02-09T11:19:12.707Z,68.30
2018-02-09T11:21:40.248Z,72.28
2018-02-09T11:24:07.824Z,60.17
2018-02-09T11:26:35.366Z,59.95
2018-02-09T11:29:02.940Z,59.40
2018-02-09T11:31:30.470Z,60.47
2018-02-09T11:33:58.048Z,57.75
2018-02-09T11:36:25.604Z,63.47
2018-02-09T11:38:53.142Z,60.28
2018-02-09T11:41:20.726Z,63.58
2018-02-09T11:43:48.298Z,64.07
2018-02-09T11:46:15.873Z,62.80
2018-02-09T11:48:43.406Z,71.75
2018-02-09T11:51:10.942Z,64.68
2018-02-09T11:53:38.603Z,65.03
2018-02-09T11:56:06.182Z,67.18
2018-02-09T11:58:33.763Z,68.85
2018-02-09T12:01:01.299Z,59.25
2018-02-09T12:03:28.874Z,58.70
2018-02-09T12:05:56.414Z,59.88
2018-02-09T12:08:23.991Z,66.47
2018-02-09T12:10:51.544Z,65.10
2018-02-09T12:13:19.084Z,61.88
2018-02-09T12:15:46.663Z,63.47
2018-02-09T12:18:14.258Z,67.45
2018-02-09T12:20:42.571Z,64.00
2018-02-09T12:23:10.149Z,59.55
2018-02-09T12:25:37.675Z,61.83
2018-02-09T12:28:05.263Z,63.75
2018-02-09T12:30:32.837Z,60.12
2018-02-09T12:33:00.444Z,59.80
2018-02-09T12:35:28.015Z,55.60
2018-02-09T12:37:55.606Z,61.70
2018-02-09T12:40:23.153Z,57.90
2018-02-09T12:42:50.696Z,59.78
2018-02-09T12:45:18.290Z,70.53
2018-02-09T12:47:45.855Z,53.72
2018-02-09T12:50:13.446Z,54.28
2018-02-09T12:52:40.992Z,63.60
2018-02-09T12:55:08.580Z,56.28
2018-02-09T12:57:36.140Z,54.85
2018-02-09T13:00:03.743Z,52.20
2018-02-09T13:02:31.336Z,60.67
2018-02-09T13:04:58.891Z,66.00
2018-02-09T13:07:26.480Z,55.80
2018-02-09T13:09:54.863Z,55.10
2018-02-09T13:12:35.080Z,56.03
2018-02-09T13:15:02.636Z,60.05
2018-02-09T13:17:30.212Z,57.70
2018-02-09T13:19:57.755Z,59.00
2018-02-09T13:22:37.200Z,55.90
2018-02-09T13:25:04.741Z,60.10
2018-02-09T13:27:32.326Z,71.32
2018-02-09T13:29:59.875Z,61.53
2018-02-09T13:32:39.122Z,54.55
2018-02-09T13:35:06.668Z,60.63
2018-02-09T13:37:34.254Z,60.97
2018-02-09T13:40:02.564Z,59.33
2018-02-09T13:42:30.104Z,52.03
2018-02-09T13:44:58.525Z,64.47
2018-02-09T13:47:26.085Z,63.25
2018-02-09T13:49:53.655Z,57.35
2018-02-09T13:52:21.199Z,68.75
2018-02-09T13:54:48.866Z,65.70
2018-02-09T13:57:16.406Z,64.60
2018-02-09T13:59:43.950Z,63.28
2018-02-09T14:02:12.326Z,64.03
2018-02-09T14:04:40.694Z,65.90
2018-02-09T14:07:09.049Z,58.28
2018-02-09T14:09:36.641Z,63.25
2018-02-09T14:12:04.289Z,74.55
2018-02-09T14:14:32.739Z,72.25
2018-02-09T14:17:00.295Z,64.65
2018-02-09T14:19:28.271Z,66.85
2018-02-09T14:21:55.805Z,66.95
2018-02-09T14:24:23.378Z,63.33
2018-02-09T14:26:50.946Z,76.00
2018-02-09T14:29:18.543Z,65.28
2018-02-09T14:31:46.858Z,66.62
2018-02-09T14:34:14.446Z,73.15
2018-02-09T14:36:41.984Z,69.28
2018-02-09T14:39:09.535Z,73.45
2018-02-09T14:41:37.116Z,69.15
2018-02-09T14:44:04.713Z,73.10
2018-02-09T14:46:33.036Z,68.68
2018-02-09T14:49:00.666Z,67.35
2018-02-09T14:51:28.261Z,73.10
2018-02-09T14:53:55.844Z,71.55
2018-02-09T14:56:23.394Z,70.05
2018-02-09T14:58:50.981Z,67.03
2018-02-09T15:01:18.602Z,67.47
2018-02-09T15:03:46.178Z,64.03
2018-02-09T15:06:13.717Z,68.25
2018-02-09T15:08:41.297Z,72.28
2018-02-09T15:11:08.862Z,77.07
2018-02-09T15:13:36.502Z,79.47
2018-02-09T15:16:04.056Z,72.78
2018-02-09T15:18:31.611Z,71.30
2018-02-09T15:20:59.197Z,80.80
2018-02-09T15:23:26.787Z,69.62
2018-02-09T15:25:54.319Z,67.15
2018-02-09T15:28:21.905Z,74.00
2018-02-09T15:30:49.564Z,68.82
2018-02-09T15:33:17.084Z,71.47
2018-02-09T15:35:44.664Z,67.15
2018-02-09T15:38:12.212Z,69.78
2018-02-09T15:40:39.868Z,68.80
2018-02-09T15:43:07.540Z,74.53
2018-02-09T15:45:35.140Z,62.03
2018-02-09T15:48:03.452Z,68.50
2018-02-09T15:50:31.029Z,63.55
2018-02-09T15:52:58.572Z,69.22
2018-02-09T15:55:26.149Z,66.75
2018-02-09T15:57:53.697Z,65.80
2018-02-09T16:00:21.281Z,69.00
2018-02-09T16:02:48.827Z,68.50
2018-02-09T16:05:16.407Z,68.18
2018-02-09T16:07:43.954Z,66.47
2018-02-09T16:10:11.534Z,71.87
2018-02-09T16:12:39.131Z,73.95
2018-02-09T16:15:07.495Z,61.72
2018-02-09T16:17:36.023Z,66.25
2018-02-09T16:20:03.570Z,67.37
2018-02-09T16:22:31.273Z,71.65
2018-02-09T16:24:59.011Z,77.12
2018-02-09T16:27:26.572Z,70.40
2018-02-09T16:29:54.154Z,71.90
2018-02-09T16:32:21.686Z,81.53
2018-02-09T16:34:49.274Z,68.80
2018-02-09T16:37:16.813Z,66.30
2018-02-09T16:39:44.418Z,70.65
2018-02-09T16:42:11.990Z,71.10
2018-02-09T16:44:40.330Z,67.90
2018-02-09T16:47:07.872Z,61.80
2018-02-09T16:49:35.464Z,66.55
2018-02-09T16:52:03.010Z,72.22
2018-02-09T16:54:30.589Z,62.97
2018-02-09T16:56:58.148Z,63.80
2018-02-09T16:59:25.740Z,56.00
2018-02-09T17:01:53.277Z,65.28
2018-02-09T17:04:21.624Z,69.03
2018-02-09T17:06:49.155Z,64.03
2018-02-09T17:09:16.746Z,71.45
2018-02-09T17:11:44.291Z,62.97
2018-02-09T17:14:11.871Z,66.12
2018-02-09T17:16:39.420Z,70.87
2018-02-09T17:19:07.005Z,73.43
2018-02-09T17:21:34.547Z,65.75
2018-02-09T17:24:02.129Z,62.88
2018-02-09T17:26:29.726Z,64.45
2018-02-09T17:28:57.302Z,68.10
2018-02-09T17:31:24.832Z,66.35
2018-02-09T17:33:53.179Z,71.15
2018-02-09T17:36:20.722Z,70.77
2018-02-09T17:38:48.306Z,61.97
2018-02-09T17:41:15.898Z,70.35
2018-02-09T17:43:44.244Z,70.00
2018-02-09T17:46:11.789Z,63.33
2018-02-09T17:48:39.385Z,68.15
2018-02-09T17:51:06.933Z,68.65
2018-02-09T17:53:35.292Z,66.05
2018-02-09T17:56:02.840Z,60.08
2018-02-09T17:58:30.432Z,68.67
2018-02-09T18:00:58.744Z,62.97
2018-02-09T18:03:26.336Z,67.20
2018-02-09T18:05:53.895Z,66.65
2018-02-09T18:08:21.488Z,65.47
2018-02-09T18:10:49.795Z,61.40
2018-02-09T18:13:17.406Z,66.55
2018-02-09T18:15:44.950Z,64.93
2018-02-09T18:18:12.533Z,71.87
2018-02-09T18:20:40.067Z,53.10
2018-02-09T18:23:07.650Z,67.53
2018-02-09T18:25:35.287Z,68.37
2018-02-09T18:28:02.844Z,60.53
2018-02-09T18:30:30.419Z,63.43
2018-02-09T18:32:57.967Z,65.20
2018-02-09T18:35:25.558Z,63.37
2018-02-09T18:37:53.092Z,66.23
2018-02-09T18:40:20.682Z,63.70
2018-02-09T18:42:48.994Z,64.87
2018-02-09T18:45:16.588Z,69.10
2018-02-09T18:47:44.146Z,61.47
2018-02-09T18:50:12.341Z,59.63
2018-02-09T18:52:39.893Z,67.68
2018-02-09T18:55:07.470Z,62.23
2018-02-09T18:57:35.776Z,60.53
2018-02-09T19:00:03.363Z,71.60
2018-02-09T19:02:30.903Z,70.27
2018-02-09T19:04:58.492Z,61.50
2018-02-09T19:07:26.022Z,65.43
2018-02-09T19:09:53.612Z,65.07
2018-02-09T19:12:21.162Z,60.88
2018-02-09T19:14:48.741Z,67.83
2018-02-09T19:17:16.295Z,67.97
2018-02-09T19:19:43.882Z,65.97
2018-02-09T19:22:11.422Z,63.23
2018-02-09T19:24:39.012Z,62.72
2018-02-09T19:27:07.329Z,64.87
2018-02-09T19:29:34.920Z,65.00
2018-02-09T19:32:02.466Z,69.30
2018-02-09T19:34:30.070Z,62.03
2018-02-09T19:36:58.386Z,61.83
2018-02-09T19:39:26.282Z,75.10
2018-02-09T19:41:53.831Z,60.65
2018-02-09T19:44:21.424Z,65.07
2018-02-09T19:46:49.746Z,67.97
2018-02-09T19:49:17.339Z,66.90
2018-02-09T19:51:44.901Z,67.65
2018-02-09T19:54:12.524Z,64.53
2018-02-09T19:56:40.088Z,64.47
2018-02-09T19:59:07.745Z,62.90
2018-02-09T20:01:35.295Z,71.55
2018-02-09T20:04:02.972Z,66.63
2018-02-09T20:06:30.554Z,66.18
2018-02-09T20:08:58.120Z,67.32
2018-02-09T20:11:25.815Z,71.62
2018-02-09T20:13:54.164Z,65.75
2018-02-09T20:16:21.800Z,65.80
2018-02-09T20:18:49.337Z,64.28
2018-02-09T20:21:16.943Z,73.30
2018-02-09T20:23:44.496Z,71.30
2018-02-09T20:26:12.082Z,80.07
2018-02-09T20:28:39.623Z,72.85
2018-02-09T20:31:07.216Z,65.80
2018-02-09T20:33:35.535Z,70.28
2018-02-09T20:36:03.120Z,67.47
2018-02-09T20:38:30.668Z,69.40
2018-02-09T20:40:58.424Z,75.65
2018-02-09T20:43:25.983Z,68.10
2018-02-09T20:45:53.579Z,80.00
2018-02-09T20:48:21.125Z,77.20
2018-02-09T20:50:48.711Z,80.40
2018-02-09T20:53:16.260Z,73.82
2018-02-09T20:55:43.852Z,79.25
2018-02-09T20:58:12.163Z,72.43
2018-02-09T21:00:39.770Z,74.03
2018-02-09T21:03:07.328Z,79.47
2018-02-09T21:05:34.909Z,70.03
2018-02-09T21:08:03.222Z,75.65
2018-02-09T21:10:30.854Z,74.90
2018-02-09T21:12:58.404Z,69.85
2018-02-09T21:15:26.783Z,75.65
2018-02-09T21:17:55.224Z,80.80
2018-02-09T21:20:22.806Z,69.90
2018-02-09T21:22:50.400Z,72.05
2018-02-09T21:25:18.010Z,74.03
2018-02-09T21:27:45.755Z,78.78
2018-02-09T21:30:13.304Z,70.95
2018-02-09T21:32:41.070Z,75.60
2018-02-09T21:35:08.627Z,71.78
2018-02-09T21:37:36.714Z,68.47
2018-02-09T21:40:04.459Z,81.43
2018-02-09T21:42:32.076Z,77.43
2018-02-09T21:44:59.644Z,73.97
2018-02-09T21:47:28.001Z,81.72
2018-02-09T21:49:55.831Z,78.47
2018-02-09T21:52:23.597Z,71.50
2018-02-09T21:54:51.164Z,75.03
2018-02-09T21:57:18.762Z,80.03
2018-02-09T21:59:47.108Z,73.35
2018-02-09T22:02:14.872Z,77.15
2018-02-09T22:04:42.518Z,77.90
2018-02-09T22:07:10.152Z,82.82
2018-02-09T22:09:37.725Z,75.85
2018-02-09T22:12:05.513Z,77.22
2018-02-09T22:14:33.087Z,80.93
2018-02-09T22:17:00.831Z,73.07
2018-02-09T22:19:28.389Z,81.65
2018-02-09T22:21:55.990Z,72.05
2018-02-09T22:24:24.317Z,76.75
2018-02-09T22:26:51.920Z,74.75
2018-02-09T22:29:19.472Z,76.05
2018-02-09T22:31:47.060Z,81.05
2018-02-09T22:34:14.607Z,75.57
2018-02-09T22:36:42.184Z,74.32
2018-02-09T22:39:10.542Z,74.60
2018-02-09T22:41:39.588Z,76.35
2018-02-09T22:44:07.179Z,77.45
2018-02-09T22:46:34.723Z,78.85
2018-02-09T22:49:02.320Z,69.60
2018-02-09T22:51:29.861Z,77.70
2018-02-09T22:53:57.460Z,84.95
2018-02-09T22:56:25.767Z,81.20
2018-02-09T22:58:53.320Z,73.37
2018-02-09T23:01:20.907Z,77.93
2018-02-09T23:03:48.489Z,79.95
2018-02-09T23:06:16.095Z,75.93
2018-02-09T23:08:43.694Z,78.28
2018-02-09T23:11:11.238Z,77.18
2018-02-09T23:13:38.780Z,77.10
2018-02-09T23:16:06.377Z,80.00
2018-02-09T23:18:33.916Z,77.75
2018-02-09T23:21:01.492Z,78.57
2018-02-09T23:23:29.124Z,74.00
2018-02-09T23:25:56.715Z,74.47
2018-02-09T23:28:24.259Z,71.70
2018-02-09T23:30:51.843Z,75.43
2018-02-09T23:33:19.429Z,72.32
2018-02-09T23:35:46.967Z,70.72
2018-02-09T23:38:14.556Z,68.78
2018-02-09T23:40:42.860Z,69.00
2018-02-09T23:43:10.449Z,76.30
2018-02-09T23:45:37.987Z,80.53
2018-02-09T23:48:05.578Z,80.72
2018-02-09T23:50:33.124Z,77.65
2018-02-09T23:53:00.670Z,71.70
2018-02-09T23:55:28.260Z,74.68
2018-02-09T23:57:55.820Z,72.70
